createdAt,value
2019-02-17T00:00:49.724Z,27.37
2019-02-17T00:03:19.230Z,26.63
2019-02-17T00:05:48.727Z,27.10
2019-02-17T00:08:18.236Z,30.17
2019-02-17T00:10:47.708Z,28.53
2019-02-17T00:13:17.167Z,34.80
2019-02-17T00:15:46.664Z,28.83
2019-02-17T00:18:16.148Z,29.23
2019-02-17T00:20:45.630Z,31.40
2019-02-17T00:23:15.228Z,31.73
2019-02-17T00:25:44.712Z,29.00
2019-02-17T00:28:26.386Z,26.10
2019-02-17T00:30:55.818Z,26.83
2019-02-17T00:33:25.314Z,30.27
2019-02-17T00:35:54.721Z,24.80
2019-02-17T00:38:24.492Z,28.13
2019-02-17T00:40:53.965Z,24.70
2019-02-17T00:43:23.372Z,28.77
2019-02-17T00:45:52.772Z,25.63
2019-02-17T00:48:22.167Z,25.80
2019-02-17T00:50:51.612Z,30.70
2019-02-17T00:53:21.065Z,23.93
2019-02-17T00:55:50.473Z,28.77
2019-02-17T00:58:19.901Z,27.30
2019-02-17T01:00:49.301Z,28.77
2019-02-17T01:03:18.774Z,25.60
2019-02-17T01:05:48.191Z,25.97
2019-02-17T01:08:17.615Z,30.67
2019-02-17T01:10:46.997Z,26.37
2019-02-17T01:13:16.415Z,30.73
2019-02-17T01:15:46.388Z,32.03
2019-02-17T01:18:15.798Z,33.93
2019-02-17T01:20:45.191Z,33.53
2019-02-17T01:23:14.974Z,27.73
2019-02-17T01:25:44.431Z,28.60
2019-02-17T01:28:13.838Z,29.73
2019-02-17T01:30:43.294Z,28.10
2019-02-17T01:33:12.699Z,28.27
2019-02-17T01:35:42.108Z,27.70
2019-02-17T01:38:11.498Z,29.33
2019-02-17T01:40:40.894Z,25.83
2019-02-17T01:43:10.317Z,26.23
2019-02-17T01:45:39.718Z,26.53
2019-02-17T01:48:09.126Z,25.93
2019-02-17T01:50:38.532Z,27.23
2019-02-17T01:53:07.966Z,26.67
2019-02-17T01:55:37.394Z,29.57
2019-02-17T01:58:06.796Z,30.60
2019-02-17T02:00:36.212Z,24.53
2019-02-17T02:03:05.696Z,24.37
2019-02-17T02:05:35.115Z,24.40
2019-02-17T02:08:04.634Z,22.77
2019-02-17T02:10:34.237Z,22.50
2019-02-17T02:13:03.663Z,20.73
2019-02-17T02:15:33.145Z,23.73
2019-02-17T02:18:02.570Z,24.37
2019-02-17T02:20:32.463Z,20.50
2019-02-17T02:23:02.169Z,25.50
2019-02-17T02:25:31.659Z,26.83
2019-02-17T02:28:01.051Z,17.83
2019-02-17T02:30:30.472Z,18.30
2019-02-17T02:32:59.885Z,19.63
2019-02-17T02:35:29.284Z,20.93
2019-02-17T02:37:58.681Z,20.20
2019-02-17T02:40:28.126Z,22.93
2019-02-17T02:42:57.520Z,19.13
2019-02-17T02:45:26.925Z,17.70
2019-02-17T02:47:56.395Z,19.70
2019-02-17T02:50:25.948Z,21.33
2019-02-17T02:52:55.595Z,22.80
2019-02-17T02:55:25.113Z,21.03
2019-02-17T02:57:54.520Z,22.00
2019-02-17T03:00:23.940Z,21.43
2019-02-17T03:02:53.364Z,18.43
2019-02-17T03:05:22.794Z,24.10
2019-02-17T03:07:52.190Z,23.07
2019-02-17T03:10:21.625Z,19.53
2019-02-17T03:12:51.107Z,25.93
2019-02-17T03:15:20.607Z,21.47
2019-02-17T03:17:50.033Z,21.07
2019-02-17T03:20:19.442Z,21.50
2019-02-17T03:22:48.847Z,20.83
2019-02-17T03:25:18.303Z,21.83
2019-02-17T03:27:47.719Z,26.77
2019-02-17T03:30:17.219Z,19.47
2019-02-17T03:32:46.609Z,18.70
2019-02-17T03:35:16.019Z,21.10
2019-02-17T03:37:45.450Z,20.57
2019-02-17T03:40:14.839Z,21.23
2019-02-17T03:42:44.246Z,18.03
2019-02-17T03:45:13.741Z,20.20
2019-02-17T03:47:43.155Z,24.23
2019-02-17T03:50:12.600Z,18.70
2019-02-17T03:52:42.015Z,15.17
2019-02-17T03:55:11.433Z,20.00
2019-02-17T03:57:40.875Z,20.30
2019-02-17T04:00:16.879Z,20.37
2019-02-17T04:02:41.564Z,18.27
2019-02-17T04:05:11.059Z,17.73
2019-02-17T04:07:40.563Z,17.73
2019-02-17T04:10:10.065Z,14.27
2019-02-17T04:12:39.557Z,19.10
2019-02-17T04:15:09.054Z,17.10
2019-02-17T04:17:38.636Z,15.57
2019-02-17T04:20:08.257Z,14.93
2019-02-17T04:22:37.674Z,18.87
2019-02-17T04:25:07.605Z,18.73
2019-02-17T04:27:37.176Z,18.20
2019-02-17T04:30:06.846Z,18.93
2019-02-17T04:32:36.332Z,19.30
2019-02-17T04:35:05.821Z,18.37
2019-02-17T04:37:35.225Z,14.60
2019-02-17T04:40:04.832Z,17.90
2019-02-17T04:42:34.226Z,16.73
2019-02-17T04:45:03.803Z,22.67
2019-02-17T04:47:33.241Z,17.77
2019-02-17T04:50:02.639Z,17.83
2019-02-17T04:52:32.094Z,14.87
2019-02-17T04:55:01.486Z,17.87
2019-02-17T04:57:30.890Z,18.93
2019-02-17T05:00:00.353Z,16.67
2019-02-17T05:02:29.767Z,16.50
2019-02-17T05:04:59.171Z,15.67
2019-02-17T05:07:28.582Z,18.27
2019-02-17T05:09:57.953Z,15.17
2019-02-17T05:12:27.348Z,14.97
2019-02-17T05:14:56.743Z,18.80
2019-02-17T05:17:26.166Z,15.50
2019-02-17T05:19:55.805Z,18.27
2019-02-17T05:22:25.275Z,20.53
2019-02-17T05:24:54.649Z,13.60
2019-02-17T05:27:24.055Z,16.93
2019-02-17T05:29:53.485Z,18.83
2019-02-17T05:32:22.946Z,18.00
2019-02-17T05:34:52.337Z,18.53
2019-02-17T05:37:21.859Z,21.60
2019-02-17T05:39:51.326Z,18.93
2019-02-17T05:42:20.809Z,16.10
2019-02-17T05:44:50.324Z,15.33
2019-02-17T05:47:19.737Z,15.93
2019-02-17T05:49:49.149Z,20.97
2019-02-17T05:52:18.576Z,14.87
2019-02-17T05:54:50.334Z,17.47
2019-02-17T05:57:19.086Z,18.03
2019-02-17T05:59:48.472Z,16.03
2019-02-17T06:02:17.868Z,19.03
2019-02-17T06:04:47.259Z,16.67
2019-02-17T06:07:16.662Z,20.70
2019-02-17T06:09:46.351Z,21.50
2019-02-17T06:12:15.740Z,20.17
2019-02-17T06:14:45.150Z,22.27
2019-02-17T06:17:14.546Z,15.90
2019-02-17T06:19:43.957Z,20.40
2019-02-17T06:22:13.377Z,20.57
2019-02-17T06:24:42.781Z,22.30
2019-02-17T06:27:12.334Z,18.33
2019-02-17T06:29:41.721Z,20.40
2019-02-17T06:32:11.139Z,18.93
2019-02-17T06:34:40.565Z,18.50
2019-02-17T06:37:09.983Z,21.37
2019-02-17T06:39:39.378Z,25.10
2019-02-17T06:42:08.863Z,17.97
2019-02-17T06:44:38.266Z,20.07
2019-02-17T06:47:14.082Z,19.70
2019-02-17T06:49:43.479Z,18.37
2019-02-17T06:52:12.963Z,18.17
2019-02-17T06:54:44.533Z,19.47
2019-02-17T06:57:20.474Z,23.23
2019-02-17T06:59:51.513Z,19.43
2019-02-17T07:02:20.999Z,19.87
2019-02-17T07:05:21.506Z,18.20
2019-02-17T07:07:50.912Z,18.17
2019-02-17T07:10:20.349Z,15.07
2019-02-17T07:12:49.777Z,18.43
2019-02-17T07:15:19.254Z,18.83
2019-02-17T07:17:48.660Z,18.43
2019-02-17T07:20:18.053Z,16.73
2019-02-17T07:22:47.678Z,16.70
2019-02-17T07:25:17.252Z,18.20
2019-02-17T07:27:46.670Z,17.97
2019-02-17T07:30:16.134Z,19.23
2019-02-17T07:32:45.613Z,20.80
2019-02-17T07:35:15.101Z,22.10
2019-02-17T07:37:44.658Z,19.43
2019-02-17T07:40:14.149Z,21.43
2019-02-17T07:42:43.584Z,19.47
2019-02-17T07:45:13.147Z,17.77
2019-02-17T07:47:42.618Z,19.10
2019-02-17T07:50:12.162Z,17.67
2019-02-17T07:52:41.699Z,19.53
2019-02-17T07:55:11.289Z,21.30
2019-02-17T07:57:40.729Z,22.90
2019-02-17T08:00:10.301Z,19.40
2019-02-17T08:02:39.707Z,20.63
2019-02-17T08:05:09.263Z,22.30
2019-02-17T08:07:38.665Z,17.20
2019-02-17T08:10:08.286Z,19.67
2019-02-17T08:12:37.853Z,20.17
2019-02-17T08:15:07.996Z,15.77
2019-02-17T08:17:37.398Z,20.87
2019-02-17T08:20:08.448Z,17.97
2019-02-17T08:22:37.850Z,19.67
2019-02-17T08:25:07.429Z,17.43
2019-02-17T08:27:36.852Z,19.50
2019-02-17T08:30:07.286Z,15.40
2019-02-17T08:32:36.697Z,18.07
2019-02-17T08:35:06.280Z,19.37
2019-02-17T08:37:35.772Z,20.50
2019-02-17T08:40:06.349Z,20.10
2019-02-17T08:42:35.765Z,21.60
2019-02-17T08:45:05.939Z,19.47
2019-02-17T08:47:35.385Z,16.60
2019-02-17T08:50:05.898Z,17.13
2019-02-17T08:52:35.294Z,21.93
2019-02-17T08:55:05.198Z,14.47
2019-02-17T08:57:34.675Z,16.53
2019-02-17T09:00:04.608Z,25.50
2019-02-17T09:02:34.037Z,24.87
2019-02-17T09:05:03.456Z,19.53
2019-02-17T09:07:32.896Z,18.80
2019-02-17T09:10:02.331Z,20.67
2019-02-17T09:12:31.812Z,15.50
2019-02-17T09:15:01.276Z,16.13
2019-02-17T09:17:30.708Z,18.07
2019-02-17T09:20:00.310Z,18.87
2019-02-17T09:22:29.875Z,14.53
2019-02-17T09:24:59.303Z,20.03
2019-02-17T09:27:28.751Z,18.40
2019-02-17T09:29:58.295Z,16.23
2019-02-17T09:32:27.932Z,17.07
2019-02-17T09:34:57.337Z,18.80
2019-02-17T09:37:26.845Z,16.87
2019-02-17T09:39:56.283Z,20.03
2019-02-17T09:42:25.707Z,17.73
2019-02-17T09:44:55.143Z,18.50
2019-02-17T09:47:26.124Z,16.80
2019-02-17T09:49:55.560Z,18.40
2019-02-17T09:52:24.984Z,16.90
2019-02-17T09:54:54.408Z,17.67
2019-02-17T09:57:23.862Z,15.50
2019-02-17T09:59:53.330Z,13.30
2019-02-17T10:02:26.638Z,19.00
2019-02-17T10:04:53.986Z,18.93
2019-02-17T10:07:23.394Z,16.30
2019-02-17T10:09:52.902Z,18.23
2019-02-17T10:12:22.314Z,22.13
2019-02-17T10:14:51.834Z,16.33
2019-02-17T10:17:21.336Z,15.17
2019-02-17T10:19:50.758Z,15.27
2019-02-17T10:22:20.166Z,15.90
2019-02-17T10:24:49.620Z,15.93
2019-02-17T10:27:19.018Z,19.30
2019-02-17T10:29:48.496Z,15.03
2019-02-17T10:32:17.910Z,17.57
2019-02-17T10:34:47.334Z,21.20
2019-02-17T10:37:16.880Z,20.57
2019-02-17T10:39:46.332Z,17.13
2019-02-17T10:42:15.734Z,17.37
2019-02-17T10:44:45.159Z,15.80
2019-02-17T10:47:14.626Z,17.20
2019-02-17T10:49:44.096Z,22.13
2019-02-17T10:52:13.508Z,15.57
2019-02-17T10:54:42.944Z,16.53
2019-02-17T10:57:12.459Z,21.90
2019-02-17T10:59:41.947Z,17.67
2019-02-17T11:02:11.375Z,17.73
2019-02-17T11:04:40.823Z,16.23
2019-02-17T11:07:10.229Z,14.70
2019-02-17T11:09:39.635Z,17.03
2019-02-17T11:12:09.064Z,19.10
2019-02-17T11:14:38.544Z,17.93
2019-02-17T11:17:08.043Z,17.07
2019-02-17T11:19:37.443Z,19.77
2019-02-17T11:22:06.851Z,19.43
2019-02-17T11:24:36.253Z,18.17
2019-02-17T11:27:05.677Z,18.53
2019-02-17T11:29:35.095Z,17.10
2019-02-17T11:32:04.603Z,17.33
2019-02-17T11:34:34.103Z,18.47
2019-02-17T11:37:03.538Z,17.27
2019-02-17T11:39:32.966Z,19.63
2019-02-17T11:42:02.566Z,20.80
2019-02-17T11:44:32.093Z,18.60
2019-02-17T11:47:01.555Z,21.53
2019-02-17T11:49:31.149Z,23.90
2019-02-17T11:52:00.739Z,20.77
2019-02-17T11:54:30.346Z,20.97
2019-02-17T11:56:59.882Z,20.63
2019-02-17T11:59:29.304Z,22.43
2019-02-17T12:01:58.793Z,21.23
2019-02-17T12:04:28.244Z,23.47
2019-02-17T12:06:57.674Z,21.47
2019-02-17T12:09:27.248Z,20.60
2019-02-17T12:11:56.762Z,22.03
2019-02-17T12:14:32.296Z,21.37
2019-02-17T12:17:01.712Z,24.30
2019-02-17T12:19:31.202Z,23.03
2019-02-17T12:22:06.047Z,20.33
2019-02-17T12:24:46.282Z,20.93
2019-02-17T12:27:30.165Z,20.07
2019-02-17T12:30:04.078Z,22.17
2019-02-17T12:32:33.710Z,21.77
2019-02-17T12:35:03.188Z,23.97
2019-02-17T12:37:32.939Z,24.97
2019-02-17T12:40:02.411Z,25.13
2019-02-17T12:42:31.844Z,22.83
2019-02-17T12:45:01.295Z,22.57
2019-02-17T12:47:30.744Z,25.13
2019-02-17T12:50:00.243Z,25.10
2019-02-17T12:52:29.696Z,25.97
2019-02-17T12:54:59.279Z,25.77
2019-02-17T12:57:28.694Z,24.20
2019-02-17T12:59:58.121Z,23.17
2019-02-17T13:02:27.589Z,24.73
2019-02-17T13:04:57.347Z,24.90
2019-02-17T13:07:26.845Z,25.33
2019-02-17T13:09:56.346Z,25.10
2019-02-17T13:12:25.823Z,24.57
2019-02-17T13:14:55.246Z,20.57
2019-02-17T13:17:24.662Z,25.07
2019-02-17T13:19:54.103Z,20.87
2019-02-17T13:22:23.541Z,22.93
2019-02-17T13:25:00.640Z,20.77
2019-02-17T13:27:30.229Z,26.93
2019-02-17T13:29:59.652Z,25.30
2019-02-17T13:32:29.140Z,26.57
2019-02-17T13:34:59.092Z,21.70
2019-02-17T13:37:30.323Z,23.37
2019-02-17T13:39:59.907Z,22.80
2019-02-17T13:42:29.378Z,24.73
2019-02-17T13:44:58.898Z,26.73
2019-02-17T13:47:28.401Z,24.40
2019-02-17T13:49:58.141Z,27.10
2019-02-17T13:52:27.786Z,24.27
2019-02-17T13:54:57.248Z,24.60
2019-02-17T13:57:26.647Z,26.07
2019-02-17T13:59:56.584Z,26.57
2019-02-17T14:02:26.092Z,25.63
2019-02-17T14:04:55.574Z,24.37
2019-02-17T14:07:25.002Z,27.00
2019-02-17T14:09:54.630Z,25.37
2019-02-17T14:12:24.046Z,26.00
2019-02-17T14:14:53.507Z,28.07
2019-02-17T14:17:23.133Z,20.37
2019-02-17T14:19:52.586Z,19.93
2019-02-17T14:22:21.993Z,23.70
2019-02-17T14:24:51.454Z,25.10
2019-02-17T14:27:20.857Z,25.27
2019-02-17T14:29:50.322Z,23.83
2019-02-17T14:32:19.741Z,21.07
2019-02-17T14:34:49.305Z,21.73
2019-02-17T14:37:18.788Z,20.67
2019-02-17T14:39:48.264Z,24.60
2019-02-17T14:42:17.739Z,23.33
2019-02-17T14:44:47.179Z,23.53
2019-02-17T14:47:16.673Z,19.83
2019-02-17T14:49:46.175Z,19.90
2019-02-17T14:52:15.629Z,20.77
2019-02-17T14:54:45.127Z,19.77
2019-02-17T14:57:14.585Z,18.63
2019-02-17T14:59:44.088Z,18.20
2019-02-17T15:02:13.573Z,23.00
2019-02-17T15:04:43.035Z,17.73
2019-02-17T15:07:12.434Z,19.47
2019-02-17T15:09:42.005Z,20.53
2019-02-17T15:12:11.428Z,19.37
2019-02-17T15:14:40.848Z,20.77
2019-02-17T15:17:10.295Z,17.87
2019-02-17T15:19:39.734Z,19.50
2019-02-17T15:22:09.157Z,17.83
2019-02-17T15:24:38.624Z,17.00
2019-02-17T15:27:08.101Z,20.67
2019-02-17T15:29:37.572Z,17.60
2019-02-17T15:32:06.971Z,19.53
2019-02-17T15:34:36.443Z,18.87
2019-02-17T15:37:05.959Z,15.23
2019-02-17T15:39:35.646Z,18.03
2019-02-17T15:42:05.098Z,19.20
2019-02-17T15:44:34.608Z,21.00
2019-02-17T15:47:04.010Z,16.43
2019-02-17T15:49:33.454Z,18.70
2019-02-17T15:52:02.932Z,18.30
2019-02-17T15:54:32.545Z,13.97
2019-02-17T15:57:02.016Z,17.10
2019-02-17T15:59:31.511Z,16.63
2019-02-17T16:02:00.939Z,15.67
2019-02-17T16:04:30.356Z,16.50
2019-02-17T16:06:59.869Z,13.53
2019-02-17T16:09:29.305Z,15.33
2019-02-17T16:11:59.028Z,17.97
2019-02-17T16:14:28.432Z,15.17
2019-02-17T16:16:57.843Z,15.50
2019-02-17T16:19:27.264Z,17.93
2019-02-17T16:21:56.705Z,17.77
2019-02-17T16:24:26.140Z,22.00
2019-02-17T16:26:55.555Z,22.43
2019-02-17T16:29:25.083Z,21.67
2019-02-17T16:31:54.529Z,19.67
2019-02-17T16:34:23.933Z,21.97
2019-02-17T16:36:53.359Z,19.43
2019-02-17T16:39:22.789Z,20.97
2019-02-17T16:41:52.225Z,21.77
2019-02-17T16:44:21.659Z,28.77
2019-02-17T16:46:51.091Z,31.00
2019-02-17T16:49:20.515Z,26.70
2019-02-17T16:51:50.051Z,19.27
2019-02-17T16:54:19.447Z,24.90
2019-02-17T16:56:48.963Z,23.77
2019-02-17T16:59:18.423Z,32.40
2019-02-17T17:01:48.105Z,37.57
2019-02-17T17:04:17.590Z,28.87
2019-02-17T17:06:47.093Z,29.13
2019-02-17T17:09:16.566Z,39.97
2019-02-17T17:11:46.047Z,36.33
2019-02-17T17:14:15.450Z,27.17
2019-02-17T17:16:44.903Z,25.47
2019-02-17T17:19:14.418Z,26.23
2019-02-17T17:21:43.993Z,41.70
2019-02-17T17:24:13.398Z,32.93
2019-02-17T17:26:42.938Z,32.03
2019-02-17T17:29:12.445Z,29.40
2019-02-17T17:31:41.872Z,30.70
2019-02-17T17:34:11.372Z,21.67
2019-02-17T17:36:40.920Z,22.23
2019-02-17T17:39:10.635Z,28.70
2019-02-17T17:41:40.121Z,26.87
2019-02-17T17:44:09.545Z,21.27
2019-02-17T17:46:39.265Z,22.20
2019-02-17T17:49:08.804Z,24.00
2019-02-17T17:51:38.243Z,22.57
2019-02-17T17:54:07.646Z,25.00
2019-02-17T17:56:37.071Z,29.43
2019-02-17T17:59:06.507Z,19.13
2019-02-17T18:01:35.919Z,21.10
2019-02-17T18:04:05.368Z,22.50
2019-02-17T18:06:34.785Z,24.03
2019-02-17T18:09:05.971Z,23.30
2019-02-17T18:11:35.365Z,21.63
2019-02-17T18:14:04.869Z,24.87
2019-02-17T18:16:34.319Z,24.13
2019-02-17T18:19:03.737Z,21.63
2019-02-17T18:21:33.167Z,24.30
2019-02-17T18:24:02.611Z,33.67
2019-02-17T18:26:32.305Z,23.97
2019-02-17T18:29:01.770Z,26.63
2019-02-17T18:31:31.384Z,22.80
2019-02-17T18:34:01.000Z,20.33
2019-02-17T18:36:30.543Z,26.70
2019-02-17T18:38:59.992Z,21.77
2019-02-17T18:41:29.399Z,18.30
2019-02-17T18:43:58.834Z,24.73
2019-02-17T18:46:28.283Z,21.27
2019-02-17T18:48:57.732Z,19.20
2019-02-17T18:51:27.367Z,21.57
2019-02-17T18:53:56.808Z,17.77
2019-02-17T18:56:26.241Z,15.90
2019-02-17T18:58:55.706Z,18.00
2019-02-17T19:01:25.125Z,18.70
2019-02-17T19:03:54.576Z,28.27
2019-02-17T19:06:24.035Z,22.60
2019-02-17T19:08:53.507Z,20.30
2019-02-17T19:11:23.030Z,17.17
2019-02-17T19:13:52.456Z,18.73
2019-02-17T19:16:21.884Z,20.13
2019-02-17T19:18:51.295Z,17.43
2019-02-17T19:21:20.781Z,15.83
2019-02-17T19:23:50.185Z,20.07
2019-02-17T19:26:19.606Z,19.20
2019-02-17T19:28:49.067Z,19.57
2019-02-17T19:31:18.492Z,24.00
2019-02-17T19:33:48.095Z,17.77
2019-02-17T19:36:17.555Z,22.40
2019-02-17T19:38:47.126Z,23.67
2019-02-17T19:41:16.598Z,24.33
2019-02-17T19:43:46.025Z,21.17
2019-02-17T19:46:15.484Z,21.27
2019-02-17T19:48:44.928Z,23.63
2019-02-17T19:51:14.609Z,20.97
2019-02-17T19:53:44.074Z,23.23
2019-02-17T19:56:13.791Z,22.03
2019-02-17T19:58:43.259Z,23.70
2019-02-17T20:01:12.689Z,23.80
2019-02-17T20:04:05.589Z,21.27
2019-02-17T20:06:35.079Z,20.07
2019-02-17T20:09:10.238Z,19.13
2019-02-17T20:11:39.662Z,21.10
2019-02-17T20:14:09.058Z,18.27
2019-02-17T20:16:38.681Z,20.57
2019-02-17T20:19:08.190Z,25.67
2019-02-17T20:21:37.653Z,24.50
2019-02-17T20:24:08.102Z,24.00
2019-02-17T20:26:37.798Z,24.63
2019-02-17T20:29:07.308Z,24.37
2019-02-17T20:31:36.818Z,28.43
2019-02-17T20:34:06.276Z,23.67
2019-02-17T20:36:35.702Z,24.50
2019-02-17T20:39:06.418Z,27.03
2019-02-17T20:41:35.824Z,29.67
2019-02-17T20:44:05.301Z,25.63
2019-02-17T20:46:34.738Z,25.23
2019-02-17T20:49:04.146Z,28.63
2019-02-17T20:51:33.568Z,27.20
2019-02-17T20:54:03.136Z,26.43
2019-02-17T20:56:32.675Z,23.47
2019-02-17T20:59:02.143Z,22.40
2019-02-17T21:01:31.608Z,28.53
2019-02-17T21:04:01.115Z,23.13
2019-02-17T21:06:30.528Z,26.27
2019-02-17T21:08:59.926Z,24.70
2019-02-17T21:11:29.386Z,26.67
2019-02-17T21:13:58.782Z,25.57
2019-02-17T21:16:28.183Z,21.47
2019-02-17T21:18:57.570Z,18.77
2019-02-17T21:21:26.981Z,21.57
2019-02-17T21:23:56.435Z,22.50
2019-02-17T21:26:26.447Z,20.47
2019-02-17T21:28:56.149Z,20.40
2019-02-17T21:31:25.529Z,20.00
2019-02-17T21:33:54.941Z,22.17
2019-02-17T21:36:24.342Z,21.80
2019-02-17T21:38:53.769Z,23.47
2019-02-17T21:41:23.149Z,23.03
2019-02-17T21:43:52.587Z,18.37
2019-02-17T21:46:21.983Z,19.07
2019-02-17T21:48:51.392Z,21.47
2019-02-17T21:51:20.795Z,18.60
2019-02-17T21:53:50.229Z,21.37
2019-02-17T21:56:19.635Z,24.60
2019-02-17T21:58:49.549Z,20.87
2019-02-17T22:01:19.138Z,30.60
2019-02-17T22:03:48.611Z,20.30
2019-02-17T22:06:18.051Z,24.50
2019-02-17T22:08:47.526Z,21.63
2019-02-17T22:11:16.935Z,25.57
2019-02-17T22:13:46.360Z,32.77
2019-02-17T22:16:15.774Z,25.70
2019-02-17T22:18:45.201Z,22.53
2019-02-17T22:21:14.606Z,24.07
2019-02-17T22:23:44.034Z,24.53
2019-02-17T22:26:13.434Z,25.57
2019-02-17T22:28:42.880Z,22.50
2019-02-17T22:31:13.220Z,20.70
2019-02-17T22:33:42.767Z,21.37
2019-02-17T22:36:12.300Z,21.60
2019-02-17T22:38:41.746Z,25.83
2019-02-17T22:41:11.489Z,23.87
2019-02-17T22:43:41.236Z,21.70
2019-02-17T22:46:10.956Z,22.90
2019-02-17T22:48:40.452Z,27.33
2019-02-17T22:51:10.114Z,26.03
2019-02-17T22:53:43.761Z,23.47
2019-02-17T22:56:11.363Z,24.97
2019-02-17T22:58:41.183Z,23.93
2019-02-17T23:01:15.164Z,24.43
2019-02-17T23:03:44.796Z,24.03
2019-02-17T23:06:14.303Z,26.47
2019-02-17T23:08:43.684Z,22.87
2019-02-17T23:11:13.184Z,22.87
2019-02-17T23:13:42.573Z,24.37
2019-02-17T23:16:12.114Z,22.83
2019-02-17T23:18:41.595Z,24.97
2019-02-17T23:21:11.110Z,25.63
2019-02-17T23:23:40.573Z,24.20
2019-02-17T23:26:09.996Z,24.27
2019-02-17T23:28:39.401Z,23.27
2019-02-17T23:31:08.939Z,21.93
2019-02-17T23:33:39.210Z,26.43
2019-02-17T23:36:08.667Z,21.73
2019-02-17T23:38:38.077Z,22.47
2019-02-17T23:41:07.547Z,25.57
2019-02-17T23:43:37.214Z,24.80
2019-02-17T23:46:06.705Z,21.50
2019-02-17T23:48:36.260Z,22.33
2019-02-17T23:51:05.689Z,25.17
2019-02-17T23:53:35.179Z,24.60
2019-02-17T23:56:04.659Z,23.37
2019-02-17T23:58:34.073Z,22.57
